sensor_id;sensor_type;location;lat;lon;timestamp;pressure;altitude;pressure_sealevel;temperature;humidity
53689;BME280;39583;54.682;30.662;2023-06-26T06:01:58;99276.38;;;19.62;69.89
53689;BME280;39583;54.682;30.662;2023-06-26T06:04:24;99274.03;;;19.85;69.88
53689;BME280;39583;54.682;30.662;2023-06-26T06:06:50;99281.81;;;20.01;69.55
53689;BME280;39583;54.682;30.662;2023-06-26T06:09:16;99277.91;;;20.13;69.27
53689;BME280;39583;54.682;30.662;2023-06-26T06:11:41;99285.72;;;20.24;68.96
53689;BME280;39583;54.682;30.662;2023-06-26T06:14:07;99276.09;;;20.32;68.74
53689;BME280;39583;54.682;30.662;2023-06-26T06:16:33;99277.44;;;20.35;68.53
53689;BME280;39583;54.682;30.662;2023-06-26T06:18:59;99273.34;;;20.32;68.27
53689;BME280;39583;54.682;30.662;2023-06-26T06:21:25;99282.63;;;20.31;68.03
53689;BME280;39583;54.682;30.662;2023-06-26T06:23:51;99277.94;;;20.37;67.69
53689;BME280;39583;54.682;30.662;2023-06-26T07:46:58;99310.16;;;20.11;71.03
53689;BME280;39583;54.682;30.662;2023-06-26T07:49:24;99307.88;;;20.23;70.21
53689;BME280;39583;54.682;30.662;2023-06-26T07:51:50;99307.78;;;20.33;70.32
53689;BME280;39583;54.682;30.662;2023-06-26T07:54:16;99298.88;;;20.51;70.18
53689;BME280;39583;54.682;30.662;2023-06-26T07:59:24;99298.50;;;20.87;68.75
53689;BME280;39583;54.682;30.662;2023-06-26T08:01:52;99297.59;;;20.97;68.28
53689;BME280;39583;54.682;30.662;2023-06-26T08:04:23;99298.50;;;21.11;67.70
53689;BME280;39583;54.682;30.662;2023-06-26T08:06:50;99296.97;;;21.24;66.57
53689;BME280;39583;54.682;30.662;2023-06-26T08:09:19;99293.53;;;21.37;65.96
53689;BME280;39583;54.682;30.662;2023-06-26T12:45:13;99192.84;;;24.12;48.71
53689;BME280;39583;54.682;30.662;2023-06-26T12:47:39;99190.13;;;24.21;48.73
53689;BME280;39583;54.682;30.662;2023-06-26T12:50:07;99192.25;;;24.24;48.56
53689;BME280;39583;54.682;30.662;2023-06-26T12:52:33;99186.13;;;24.27;48.85
53689;BME280;39583;54.682;30.662;2023-06-26T12:54:59;99177.38;;;24.25;48.70
53689;BME280;39583;54.682;30.662;2023-06-26T12:57:25;99189.44;;;24.37;48.79
53689;BME280;39583;54.682;30.662;2023-06-26T12:59:52;99187.19;;;24.39;48.86
53689;BME280;39583;54.682;30.662;2023-06-26T13:02:18;99189.31;;;24.51;48.52
53689;BME280;39583;54.682;30.662;2023-06-26T13:04:44;99181.06;;;24.60;48.51
53689;BME280;39583;54.682;30.662;2023-06-26T13:07:11;99185.00;;;24.67;48.28
53689;BME280;39583;54.682;30.662;2023-06-26T13:09:37;99176.75;;;24.67;47.17
53689;BME280;39583;54.682;30.662;2023-06-26T13:12:05;99174.16;;;24.71;47.70
53689;BME280;39583;54.682;30.662;2023-06-26T13:14:31;99174.19;;;24.80;47.90
53689;BME280;39583;54.682;30.662;2023-06-26T13:16:58;99178.91;;;24.88;47.35
53689;BME280;39583;54.682;30.662;2023-06-26T13:19:23;99181.97;;;24.78;46.75
53689;BME280;39583;54.682;30.662;2023-06-26T13:21:49;99185.66;;;24.64;46.71
53689;BME280;39583;54.682;30.662;2023-06-26T13:24:15;99186.56;;;24.51;47.51
53689;BME280;39583;54.682;30.662;2023-06-26T13:26:41;99184.75;;;24.38;47.52
53689;BME280;39583;54.682;30.662;2023-06-26T13:29:07;99183.81;;;24.20;47.62
53689;BME280;39583;54.682;30.662;2023-06-26T13:31:33;99185.41;;;24.12;48.00
53689;BME280;39583;54.682;30.662;2023-06-26T13:33:59;99181.78;;;24.03;47.94
53689;BME280;39583;54.682;30.662;2023-06-26T13:36:26;99181.78;;;24.03;48.13
53689;BME280;39583;54.682;30.662;2023-06-26T13:38:52;99175.47;;;24.03;47.64
53689;BME280;39583;54.682;30.662;2023-06-26T13:41:24;99170.63;;;24.08;47.50
53689;BME280;39583;54.682;30.662;2023-06-26T13:43:51;99169.88;;;24.17;47.88
53689;BME280;39583;54.682;30.662;2023-06-26T13:46:17;99164.09;;;24.27;47.96
53689;BME280;39583;54.682;30.662;2023-06-26T13:48:44;99166.63;;;24.37;47.39
53689;BME280;39583;54.682;30.662;2023-06-26T13:51:11;99163.25;;;24.49;47.57
53689;BME280;39583;54.682;30.662;2023-06-26T13:53:37;99171.06;;;24.64;47.22
53689;BME280;39583;54.682;30.662;2023-06-26T13:56:03;99164.44;;;24.74;47.12
53689;BME280;39583;54.682;30.662;2023-06-26T13:58:30;99171.47;;;24.88;46.92
53689;BME280;39583;54.682;30.662;2023-06-26T14:00:58;99164.31;;;24.96;46.89
53689;BME280;39583;54.682;30.662;2023-06-26T14:03:26;99154.81;;;25.02;46.28
53689;BME280;39583;54.682;30.662;2023-06-26T14:05:53;99164.66;;;24.94;47.00
53689;BME280;39583;54.682;30.662;2023-06-26T14:08:18;99168.03;;;24.83;47.04
53689;BME280;39583;54.682;30.662;2023-06-26T14:10:44;99165.44;;;24.86;46.81
53689;BME280;39583;54.682;30.662;2023-06-26T14:13:10;99147.97;;;24.91;46.25
53689;BME280;39583;54.682;30.662;2023-06-26T14:15:41;99161.56;;;24.96;46.00
53689;BME280;39583;54.682;30.662;2023-06-26T14:18:07;99162.69;;;24.95;46.32
53689;BME280;39583;54.682;30.662;2023-06-26T14:20:33;99166.09;;;24.92;46.52
53689;BME280;39583;54.682;30.662;2023-06-26T14:22:59;99163.81;;;24.85;46.13
53689;BME280;39583;54.682;30.662;2023-06-26T14:25:25;99161.06;;;24.85;46.41
53689;BME280;39583;54.682;30.662;2023-06-26T14:27:55;99155.88;;;24.84;46.61
53689;BME280;39583;54.682;30.662;2023-06-26T14:30:21;99153.78;;;24.81;46.52
53689;BME280;39583;54.682;30.662;2023-06-26T14:32:47;99156.38;;;24.77;46.54
53689;BME280;39583;54.682;30.662;2023-06-26T14:35:13;99155.38;;;24.64;46.67
53689;BME280;39583;54.682;30.662;2023-06-26T14:37:38;99151.44;;;24.57;46.48
53689;BME280;39583;54.682;30.662;2023-06-26T14:40:06;99154.53;;;24.55;46.75
53689;BME280;39583;54.682;30.662;2023-06-26T14:42:33;99148.03;;;24.51;47.33
53689;BME280;39583;54.682;30.662;2023-06-26T14:44:59;99156.22;;;24.34;48.29
53689;BME280;39583;54.682;30.662;2023-06-26T14:47:25;99161.63;;;24.17;48.41
53689;BME280;39583;54.682;30.662;2023-06-26T14:49:51;99162.53;;;24.03;48.59
53689;BME280;39583;54.682;30.662;2023-06-26T14:52:17;99154.22;;;23.86;49.41
53689;BME280;39583;54.682;30.662;2023-06-26T14:54:42;99149.78;;;23.76;49.45
53689;BME280;39583;54.682;30.662;2023-06-26T14:57:09;99148.53;;;23.60;49.33
53689;BME280;39583;54.682;30.662;2023-06-26T14:59:34;99161.34;;;23.29;49.57
53689;BME280;39583;54.682;30.662;2023-06-26T15:02:00;99153.41;;;23.05;50.30
53689;BME280;39583;54.682;30.662;2023-06-26T15:04:26;99156.56;;;22.98;50.43
53689;BME280;39583;54.682;30.662;2023-06-26T15:06:52;99149.16;;;22.99;50.43
53689;BME280;39583;54.682;30.662;2023-06-26T15:09:18;99153.22;;;23.01;50.46
53689;BME280;39583;54.682;30.662;2023-06-26T15:11:44;99155.22;;;23.09;50.40
53689;BME280;39583;54.682;30.662;2023-06-26T15:14:10;99152.53;;;23.32;50.41
53689;BME280;39583;54.682;30.662;2023-06-26T15:16:36;99149.34;;;23.61;49.74
53689;BME280;39583;54.682;30.662;2023-06-26T15:19:02;99146.28;;;23.85;49.40
53689;BME280;39583;54.682;30.662;2023-06-26T15:21:28;99150.56;;;23.99;48.79
53689;BME280;39583;54.682;30.662;2023-06-26T15:23:54;99152.03;;;24.05;49.01
53689;BME280;39583;54.682;30.662;2023-06-26T15:26:19;99156.06;;;24.08;49.06
53689;BME280;39583;54.682;30.662;2023-06-26T15:28:45;99155.03;;;23.95;49.29
53689;BME280;39583;54.682;30.662;2023-06-26T15:31:12;99153.41;;;23.63;50.16
53689;BME280;39583;54.682;30.662;2023-06-26T15:33:38;99156.13;;;23.18;49.98
53689;BME280;39583;54.682;30.662;2023-06-26T15:36:04;99153.44;;;22.77;50.22
53689;BME280;39583;54.682;30.662;2023-06-26T15:38:30;99171.56;;;22.37;50.97
53689;BME280;39583;54.682;30.662;2023-06-26T15:40:56;99180.00;;;21.94;51.39
53689;BME280;39583;54.682;30.662;2023-06-26T15:43:22;99190.22;;;21.18;52.85
53689;BME280;39583;54.682;30.662;2023-06-26T15:45:48;99188.50;;;20.42;53.93
53689;BME280;39583;54.682;30.662;2023-06-26T15:48:14;99204.31;;;19.92;55.35
53689;BME280;39583;54.682;30.662;2023-06-26T15:50:40;99210.97;;;19.42;56.57
53689;BME280;39583;54.682;30.662;2023-06-26T15:53:06;99207.44;;;18.92;58.52
53689;BME280;39583;54.682;30.662;2023-06-26T15:55:32;99208.13;;;18.43;60.00
53689;BME280;39583;54.682;30.662;2023-06-26T15:57:58;99200.91;;;17.98;61.29
53689;BME280;39583;54.682;30.662;2023-06-26T16:00:25;99201.97;;;17.51;63.24
53689;BME280;39583;54.682;30.662;2023-06-26T16:02:51;99191.03;;;17.10;65.13
53689;BME280;39583;54.682;30.662;2023-06-26T16:05:17;99192.84;;;16.85;66.31
53689;BME280;39583;54.682;30.662;2023-06-26T16:07:43;99193.91;;;16.68;67.02
53689;BME280;39583;54.682;30.662;2023-06-26T16:10:09;99195.19;;;16.56;67.68
53689;BME280;39583;54.682;30.662;2023-06-26T16:12:35;99193.22;;;16.41;68.21
53689;BME280;39583;54.682;30.662;2023-06-26T16:15:01;99183.06;;;16.26;69.04
53689;BME280;39583;54.682;30.662;2023-06-26T16:17:27;99182.50;;;16.24;69.34
53689;BME280;39583;54.682;30.662;2023-06-26T16:19:53;99173.25;;;16.20;69.77
53689;BME280;39583;54.682;30.662;2023-06-26T16:22:19;99175.69;;;16.16;70.26
53689;BME280;39583;54.682;30.662;2023-06-26T16:24:45;99171.56;;;16.14;70.28
53689;BME280;39583;54.682;30.662;2023-06-26T16:27:11;99170.00;;;16.18;70.51
53689;BME280;39583;54.682;30.662;2023-06-26T16:29:37;99163.47;;;16.24;70.75
53689;BME280;39583;54.682;30.662;2023-06-26T16:32:03;99168.97;;;16.34;70.82
53689;BME280;39583;54.682;30.662;2023-06-26T16:34:29;99161.69;;;16.45;71.10
53689;BME280;39583;54.682;30.662;2023-06-26T16:36:55;99165.81;;;16.58;70.81
53689;BME280;39583;54.682;30.662;2023-06-26T16:39:21;99161.00;;;16.70;70.75
53689;BME280;39583;54.682;30.662;2023-06-26T16:41:49;99148.00;;;16.82;70.69
53689;BME280;39583;54.682;30.662;2023-06-26T16:44:21;99152.38;;;16.93;70.70
53689;BME280;39583;54.682;30.662;2023-06-26T16:46:47;99134.69;;;17.01;70.98
53689;BME280;39583;54.682;30.662;2023-06-26T16:49:14;99127.09;;;17.18;71.08
53689;BME280;39583;54.682;30.662;2023-06-26T16:51:40;99127.41;;;17.32;70.86
53689;BME280;39583;54.682;30.662;2023-06-26T16:54:07;99118.41;;;17.36;70.66
53689;BME280;39583;54.682;30.662;2023-06-26T16:56:33;99129.00;;;17.48;70.73
53689;BME280;39583;54.682;30.662;2023-06-26T16:58:59;99144.53;;;17.48;70.61
53689;BME280;39583;54.682;30.662;2023-06-26T17:01:26;99143.69;;;17.42;70.87
53689;BME280;39583;54.682;30.662;2023-06-26T17:03:52;99149.97;;;17.37;70.85
53689;BME280;39583;54.682;30.662;2023-06-26T17:06:18;99150.50;;;17.29;71.17
53689;BME280;39583;54.682;30.662;2023-06-26T17:08:44;99154.88;;;17.20;71.45
53689;BME280;39583;54.682;30.662;2023-06-26T17:11:10;99154.03;;;17.09;71.67
53689;BME280;39583;54.682;30.662;2023-06-26T17:13:36;99161.06;;;17.05;72.13
53689;BME280;39583;54.682;30.662;2023-06-26T17:16:02;99151.56;;;16.98;72.56
53689;BME280;39583;54.682;30.662;2023-06-26T17:18:28;99163.25;;;17.03;72.61
53689;BME280;39583;54.682;30.662;2023-06-26T17:20:54;99162.44;;;17.03;72.76
53689;BME280;39583;54.682;30.662;2023-06-26T17:23:20;99158.63;;;17.04;73.01
53689;BME280;39583;54.682;30.662;2023-06-26T17:25:46;99164.34;;;17.02;72.88
53689;BME280;39583;54.682;30.662;2023-06-26T17:28:13;99157.25;;;17.01;72.92
53689;BME280;39583;54.682;30.662;2023-06-26T17:30:41;99151.28;;;16.99;73.16
53689;BME280;39583;54.682;30.662;2023-06-26T17:33:07;99161.63;;;16.97;73.30
53689;BME280;39583;54.682;30.662;2023-06-26T17:35:33;99160.81;;;16.97;73.38
53689;BME280;39583;54.682;30.662;2023-06-26T17:38:03;99162.44;;;16.98;73.62
53689;BME280;39583;54.682;30.662;2023-06-26T17:40:30;99162.16;;;16.99;73.46
53689;BME280;39583;54.682;30.662;2023-06-26T17:42:57;99164.59;;;17.01;73.43
53689;BME280;39583;54.682;30.662;2023-06-26T17:45:23;99165.97;;;16.98;73.61
53689;BME280;39583;54.682;30.662;2023-06-26T17:47:49;99164.59;;;16.96;73.81
53689;BME280;39583;54.682;30.662;2023-06-26T17:50:15;99170.31;;;16.94;73.73
53689;BME280;39583;54.682;30.662;2023-06-26T17:52:41;99169.75;;;16.92;73.67
53689;BME280;39583;54.682;30.662;2023-06-26T17:55:08;99172.22;;;16.94;73.81
53689;BME280;39583;54.682;30.662;2023-06-26T17:57:34;99180.38;;;16.94;73.76
53689;BME280;39583;54.682;30.662;2023-06-26T18:00:00;99186.34;;;16.91;73.69
53689;BME280;39583;54.682;30.662;2023-06-26T18:02:26;99192.03;;;16.84;73.93
53689;BME280;39583;54.682;30.662;2023-06-26T18:04:53;99186.56;;;16.74;74.14
53689;BME280;39583;54.682;30.662;2023-06-26T18:07:19;99188.69;;;16.67;74.42
53689;BME280;39583;54.682;30.662;2023-06-26T18:09:47;99183.50;;;16.55;74.62
53689;BME280;39583;54.682;30.662;2023-06-26T18:12:14;99191.31;;;16.51;74.94
53689;BME280;39583;54.682;30.662;2023-06-26T18:14:40;99192.66;;;16.44;74.79
53689;BME280;39583;54.682;30.662;2023-06-26T18:17:06;99199.69;;;16.35;75.06
53689;BME280;39583;54.682;30.662;2023-06-26T18:19:32;99203.69;;;16.27;75.30
53689;BME280;39583;54.682;30.662;2023-06-26T18:21:58;99208.00;;;16.18;75.38
53689;BME280;39583;54.682;30.662;2023-06-26T18:24:24;99214.75;;;16.10;75.77
53689;BME280;39583;54.682;30.662;2023-06-26T18:26:50;99209.25;;;16.00;75.74
53689;BME280;39583;54.682;30.662;2023-06-26T18:29:16;99216.25;;;15.91;75.88
53689;BME280;39583;54.682;30.662;2023-06-26T18:31:42;99225.16;;;15.86;76.19
53689;BME280;39583;54.682;30.662;2023-06-26T18:34:08;99228.63;;;15.77;76.36
53689;BME280;39583;54.682;30.662;2023-06-26T18:36:34;99234.53;;;15.69;76.53
53689;BME280;39583;54.682;30.662;2023-06-26T18:38:59;99233.69;;;15.63;77.00
53689;BME280;39583;54.682;30.662;2023-06-26T18:41:26;99224.72;;;15.62;77.36
53689;BME280;39583;54.682;30.662;2023-06-26T18:43:51;99226.84;;;15.60;77.26
53689;BME280;39583;54.682;30.662;2023-06-26T18:46:17;99227.94;;;15.59;77.25
53689;BME280;39583;54.682;30.662;2023-06-26T18:48:45;99221.34;;;15.55;77.69
53689;BME280;39583;54.682;30.662;2023-06-26T18:51:11;99231.94;;;15.57;77.60
53689;BME280;39583;54.682;30.662;2023-06-26T18:53:39;99223.25;;;15.55;77.72
53689;BME280;39583;54.682;30.662;2023-06-26T18:56:06;99217.22;;;15.48;77.89
53689;BME280;39583;54.682;30.662;2023-06-26T18:58:33;99215.28;;;15.43;77.95
